sensor_id;sensor_type;location;lat;lon;timestamp;P1;durP1;ratioP1;P2;durP2;ratioP2
15950;SDS011;8074;48.112;11.570;2022-10-13T00:05:15;29.30;;;20.63;;
15950;SDS011;8074;48.112;11.570;2022-10-13T00:08:18;29.00;;;20.70;;
15950;SDS011;8074;48.112;11.570;2022-10-13T00:11:41;26.50;;;16.93;;
15950;SDS011;8074;48.112;11.570;2022-10-13T00:14:28;21.00;;;16.40;;
15950;SDS011;8074;48.112;11.570;2022-10-13T00:17:16;21.07;;;15.50;;
15950;SDS011;8074;48.112;11.570;2022-10-13T00:20:03;24.90;;;16.93;;
15950;SDS011;8074;48.112;11.570;2022-10-13T00:22:31;25.13;;;17.27;;
15950;SDS011;8074;48.112;11.570;2022-10-13T00:25:00;27.77;;;17.60;;
15950;SDS011;8074;48.112;11.570;2022-10-13T00:27:29;25.50;;;17.10;;
15950;SDS011;8074;48.112;11.570;2022-10-13T00:29:56;24.93;;;16.97;;
15950;SDS011;8074;48.112;11.570;2022-10-13T00:32:23;20.80;;;16.23;;
15950;SDS011;8074;48.112;11.570;2022-10-13T00:34:51;25.07;;;16.97;;
15950;SDS011;8074;48.112;11.570;2022-10-13T00:43:26;23.17;;;15.83;;
15950;SDS011;8074;48.112;11.570;2022-10-13T00:46:12;23.60;;;16.57;;
15950;SDS011;8074;48.112;11.570;2022-10-13T00:48:39;21.47;;;16.50;;
15950;SDS011;8074;48.112;11.570;2022-10-13T00:51:08;22.67;;;16.70;;
15950;SDS011;8074;48.112;11.570;2022-10-13T00:53:38;20.70;;;15.83;;
15950;SDS011;8074;48.112;11.570;2022-10-13T00:56:07;21.03;;;15.73;;
15950;SDS011;8074;48.112;11.570;2022-10-13T00:58:38;22.97;;;17.20;;
15950;SDS011;8074;48.112;11.570;2022-10-13T01:01:06;25.10;;;15.60;;
15950;SDS011;8074;48.112;11.570;2022-10-13T01:03:33;23.20;;;15.50;;
15950;SDS011;8074;48.112;11.570;2022-10-13T01:06:01;20.93;;;15.47;;
15950;SDS011;8074;48.112;11.570;2022-10-13T01:08:29;27.50;;;15.17;;
15950;SDS011;8074;48.112;11.570;2022-10-13T01:10:59;20.27;;;15.67;;
15950;SDS011;8074;48.112;11.570;2022-10-13T01:13:39;21.67;;;14.87;;
15950;SDS011;8074;48.112;11.570;2022-10-13T01:16:14;17.40;;;13.37;;
15950;SDS011;8074;48.112;11.570;2022-10-13T01:18:50;20.97;;;13.33;;
15950;SDS011;8074;48.112;11.570;2022-10-13T01:21:25;19.90;;;14.43;;
15950;SDS011;8074;48.112;11.570;2022-10-13T01:27:10;21.03;;;14.13;;
15950;SDS011;8074;48.112;11.570;2022-10-13T01:30:02;19.87;;;14.60;;
15950;SDS011;8074;48.112;11.570;2022-10-13T01:32:34;18.33;;;13.80;;
15950;SDS011;8074;48.112;11.570;2022-10-13T01:35:11;19.70;;;14.00;;
15950;SDS011;8074;48.112;11.570;2022-10-13T01:37:43;20.20;;;14.30;;
15950;SDS011;8074;48.112;11.570;2022-10-13T01:40:15;22.33;;;15.37;;
15950;SDS011;8074;48.112;11.570;2022-10-13T01:42:50;20.67;;;13.80;;
15950;SDS011;8074;48.112;11.570;2022-10-13T01:45:27;19.67;;;14.57;;
15950;SDS011;8074;48.112;11.570;2022-10-13T01:47:57;21.73;;;15.33;;
15950;SDS011;8074;48.112;11.570;2022-10-13T01:50:29;25.37;;;16.40;;
15950;SDS011;8074;48.112;11.570;2022-10-13T01:53:18;23.50;;;15.10;;
15950;SDS011;8074;48.112;11.570;2022-10-13T02:03:45;19.63;;;14.17;;
15950;SDS011;8074;48.112;11.570;2022-10-13T02:17:55;19.50;;;13.93;;
15950;SDS011;8074;48.112;11.570;2022-10-13T02:20:24;19.30;;;13.67;;
15950;SDS011;8074;48.112;11.570;2022-10-13T02:22:53;19.10;;;13.47;;
15950;SDS011;8074;48.112;11.570;2022-10-13T02:25:26;17.47;;;13.17;;
15950;SDS011;8074;48.112;11.570;2022-10-13T02:27:54;18.83;;;13.07;;
15950;SDS011;8074;48.112;11.570;2022-10-13T02:30:25;18.27;;;13.20;;
15950;SDS011;8074;48.112;11.570;2022-10-13T02:32:54;19.27;;;13.70;;
15950;SDS011;8074;48.112;11.570;2022-10-13T02:35:22;15.53;;;12.40;;
15950;SDS011;8074;48.112;11.570;2022-10-13T02:37:50;20.03;;;13.00;;
15950;SDS011;8074;48.112;11.570;2022-10-13T02:40:17;17.23;;;13.07;;
15950;SDS011;8074;48.112;11.570;2022-10-13T02:42:44;19.17;;;13.07;;
15950;SDS011;8074;48.112;11.570;2022-10-13T02:45:30;20.60;;;12.60;;
15950;SDS011;8074;48.112;11.570;2022-10-13T02:48:20;15.67;;;12.57;;
15950;SDS011;8074;48.112;11.570;2022-10-13T02:51:13;19.90;;;12.83;;
15950;SDS011;8074;48.112;11.570;2022-10-13T02:54:01;19.23;;;12.13;;
15950;SDS011;8074;48.112;11.570;2022-10-13T02:56:28;17.73;;;12.33;;
15950;SDS011;8074;48.112;11.570;2022-10-13T02:58:55;18.30;;;12.93;;
15950;SDS011;8074;48.112;11.570;2022-10-13T03:01:22;17.77;;;12.67;;
15950;SDS011;8074;48.112;11.570;2022-10-13T03:03:49;18.03;;;12.80;;
15950;SDS011;8074;48.112;11.570;2022-10-13T03:06:18;16.03;;;13.27;;
15950;SDS011;8074;48.112;11.570;2022-10-13T03:08:45;17.60;;;12.63;;
15950;SDS011;8074;48.112;11.570;2022-10-13T03:11:12;20.07;;;12.97;;
15950;SDS011;8074;48.112;11.570;2022-10-13T03:13:39;19.83;;;12.23;;
15950;SDS011;8074;48.112;11.570;2022-10-13T03:16:07;17.27;;;13.50;;
15950;SDS011;8074;48.112;11.570;2022-10-13T03:18:34;17.83;;;12.63;;
15950;SDS011;8074;48.112;11.570;2022-10-13T03:21:02;18.37;;;13.33;;
15950;SDS011;8074;48.112;11.570;2022-10-13T03:23:32;18.83;;;13.43;;
15950;SDS011;8074;48.112;11.570;2022-10-13T03:25:59;20.17;;;13.63;;
15950;SDS011;8074;48.112;11.570;2022-10-13T03:28:26;20.23;;;13.57;;
15950;SDS011;8074;48.112;11.570;2022-10-13T03:46:34;17.17;;;12.57;;
15950;SDS011;8074;48.112;11.570;2022-10-13T03:49:01;19.20;;;12.13;;
15950;SDS011;8074;48.112;11.570;2022-10-13T03:51:28;19.83;;;12.13;;
15950;SDS011;8074;48.112;11.570;2022-10-13T03:53:55;23.57;;;16.97;;
15950;SDS011;8074;48.112;11.570;2022-10-13T03:56:25;17.23;;;11.90;;
15950;SDS011;8074;48.112;11.570;2022-10-13T03:58:54;17.60;;;12.40;;
15950;SDS011;8074;48.112;11.570;2022-10-13T04:01:41;15.53;;;9.40;;
15950;SDS011;8074;48.112;11.570;2022-10-13T04:04:10;13.73;;;8.93;;
15950;SDS011;8074;48.112;11.570;2022-10-13T04:09:54;18.53;;;8.80;;
15950;SDS011;8074;48.112;11.570;2022-10-13T04:14:55;12.37;;;8.97;;
15950;SDS011;8074;48.112;11.570;2022-10-13T04:17:24;16.13;;;9.47;;
15950;SDS011;8074;48.112;11.570;2022-10-13T04:19:53;14.00;;;8.43;;
15950;SDS011;8074;48.112;11.570;2022-10-13T04:22:20;13.40;;;9.57;;
15950;SDS011;8074;48.112;11.570;2022-10-13T04:24:47;13.23;;;8.30;;
15950;SDS011;8074;48.112;11.570;2022-10-13T04:27:14;16.17;;;9.27;;
15950;SDS011;8074;48.112;11.570;2022-10-13T04:29:44;21.03;;;8.90;;
15950;SDS011;8074;48.112;11.570;2022-10-13T04:32:12;18.50;;;9.03;;
15950;SDS011;8074;48.112;11.570;2022-10-13T04:34:39;16.43;;;9.83;;
15950;SDS011;8074;48.112;11.570;2022-10-13T04:37:06;11.07;;;8.70;;
15950;SDS011;8074;48.112;11.570;2022-10-13T04:39:33;15.13;;;9.47;;
15950;SDS011;8074;48.112;11.570;2022-10-13T04:42:00;13.73;;;8.67;;
15950;SDS011;8074;48.112;11.570;2022-10-13T04:44:27;51.73;;;11.43;;
15950;SDS011;8074;48.112;11.570;2022-10-13T04:46:55;13.53;;;9.60;;
15950;SDS011;8074;48.112;11.570;2022-10-13T04:49:24;21.73;;;11.27;;
15950;SDS011;8074;48.112;11.570;2022-10-13T04:51:51;12.80;;;9.33;;
15950;SDS011;8074;48.112;11.570;2022-10-13T04:54:18;24.73;;;10.93;;
15950;SDS011;8074;48.112;11.570;2022-10-13T04:56:45;13.10;;;10.03;;
15950;SDS011;8074;48.112;11.570;2022-10-13T04:59:12;19.73;;;11.20;;
15950;SDS011;8074;48.112;11.570;2022-10-13T05:01:40;16.27;;;10.77;;
15950;SDS011;8074;48.112;11.570;2022-10-13T05:04:08;14.87;;;10.57;;
15950;SDS011;8074;48.112;11.570;2022-10-13T05:06:38;14.53;;;11.93;;
15950;SDS011;8074;48.112;11.570;2022-10-13T05:09:08;15.97;;;11.37;;
15950;SDS011;8074;48.112;11.570;2022-10-13T05:11:39;13.83;;;11.07;;
15950;SDS011;8074;48.112;11.570;2022-10-13T05:14:20;18.63;;;13.37;;
15950;SDS011;8074;48.112;11.570;2022-10-13T05:16:47;18.93;;;12.30;;
15950;SDS011;8074;48.112;11.570;2022-10-13T05:19:14;15.83;;;12.03;;
15950;SDS011;8074;48.112;11.570;2022-10-13T05:21:43;16.90;;;12.40;;
15950;SDS011;8074;48.112;11.570;2022-10-13T05:24:09;15.43;;;10.90;;
15950;SDS011;8074;48.112;11.570;2022-10-13T05:26:38;18.13;;;12.30;;
15950;SDS011;8074;48.112;11.570;2022-10-13T05:29:05;18.13;;;11.97;;
15950;SDS011;8074;48.112;11.570;2022-10-13T05:31:32;14.90;;;11.93;;
15950;SDS011;8074;48.112;11.570;2022-10-13T05:34:00;15.03;;;11.53;;
15950;SDS011;8074;48.112;11.570;2022-10-13T05:36:29;16.13;;;11.80;;
15950;SDS011;8074;48.112;11.570;2022-10-13T05:38:59;15.87;;;11.60;;
15950;SDS011;8074;48.112;11.570;2022-10-13T05:41:29;16.07;;;11.93;;
15950;SDS011;8074;48.112;11.570;2022-10-13T05:43:58;14.23;;;11.60;;
15950;SDS011;8074;48.112;11.570;2022-10-13T05:46:27;23.17;;;16.40;;
15950;SDS011;8074;48.112;11.570;2022-10-13T05:48:55;20.33;;;14.47;;
15950;SDS011;8074;48.112;11.570;2022-10-13T05:51:23;18.33;;;12.20;;
15950;SDS011;8074;48.112;11.570;2022-10-13T05:53:57;15.63;;;11.67;;
15950;SDS011;8074;48.112;11.570;2022-10-13T05:56:34;17.07;;;11.53;;
15950;SDS011;8074;48.112;11.570;2022-10-13T05:59:09;16.60;;;10.60;;
15950;SDS011;8074;48.112;11.570;2022-10-13T06:01:40;14.97;;;9.77;;
15950;SDS011;8074;48.112;11.570;2022-10-13T06:04:13;16.63;;;10.63;;
15950;SDS011;8074;48.112;11.570;2022-10-13T06:06:44;12.90;;;10.67;;
15950;SDS011;8074;48.112;11.570;2022-10-13T06:09:14;16.47;;;10.37;;
15950;SDS011;8074;48.112;11.570;2022-10-13T06:11:47;13.17;;;10.23;;
15950;SDS011;8074;48.112;11.570;2022-10-13T06:14:32;12.87;;;10.00;;
15950;SDS011;8074;48.112;11.570;2022-10-13T06:17:04;14.57;;;11.50;;
15950;SDS011;8074;48.112;11.570;2022-10-13T06:19:34;16.10;;;10.77;;
15950;SDS011;8074;48.112;11.570;2022-10-13T06:22:01;13.80;;;10.50;;
15950;SDS011;8074;48.112;11.570;2022-10-13T06:24:49;16.37;;;11.00;;
15950;SDS011;8074;48.112;11.570;2022-10-13T06:27:16;15.00;;;10.77;;
15950;SDS011;8074;48.112;11.570;2022-10-13T06:29:43;14.40;;;11.40;;
15950;SDS011;8074;48.112;11.570;2022-10-13T06:32:10;14.33;;;10.17;;
15950;SDS011;8074;48.112;11.570;2022-10-13T06:34:37;14.67;;;11.10;;
15950;SDS011;8074;48.112;11.570;2022-10-13T06:37:04;16.57;;;12.03;;
15950;SDS011;8074;48.112;11.570;2022-10-13T06:39:32;19.27;;;12.03;;
15950;SDS011;8074;48.112;11.570;2022-10-13T06:42:01;14.20;;;11.37;;
15950;SDS011;8074;48.112;11.570;2022-10-13T06:44:28;13.97;;;11.27;;
15950;SDS011;8074;48.112;11.570;2022-10-13T06:46:56;15.30;;;12.23;;
15950;SDS011;8074;48.112;11.570;2022-10-13T06:49:23;29.10;;;20.37;;
15950;SDS011;8074;48.112;11.570;2022-10-13T06:51:50;18.77;;;13.43;;
15950;SDS011;8074;48.112;11.570;2022-10-13T06:54:17;19.87;;;13.97;;
15950;SDS011;8074;48.112;11.570;2022-10-13T06:56:44;16.10;;;13.83;;
15950;SDS011;8074;48.112;11.570;2022-10-13T06:59:12;17.20;;;13.03;;
15950;SDS011;8074;48.112;11.570;2022-10-13T07:01:39;14.97;;;12.07;;
15950;SDS011;8074;48.112;11.570;2022-10-13T07:04:06;12.87;;;11.40;;
15950;SDS011;8074;48.112;11.570;2022-10-13T07:06:33;15.97;;;13.47;;
15950;SDS011;8074;48.112;11.570;2022-10-13T07:09:01;16.77;;;14.07;;
15950;SDS011;8074;48.112;11.570;2022-10-13T07:11:29;16.17;;;13.20;;
15950;SDS011;8074;48.112;11.570;2022-10-13T07:13:56;18.10;;;14.23;;
15950;SDS011;8074;48.112;11.570;2022-10-13T07:16:24;14.60;;;12.50;;
15950;SDS011;8074;48.112;11.570;2022-10-13T07:18:51;16.10;;;12.17;;
15950;SDS011;8074;48.112;11.570;2022-10-13T07:21:18;15.07;;;12.63;;
15950;SDS011;8074;48.112;11.570;2022-10-13T07:23:45;18.63;;;13.83;;
15950;SDS011;8074;48.112;11.570;2022-10-13T07:26:13;17.53;;;13.60;;
15950;SDS011;8074;48.112;11.570;2022-10-13T07:28:41;17.33;;;12.63;;
15950;SDS011;8074;48.112;11.570;2022-10-13T07:31:09;17.53;;;14.30;;
15950;SDS011;8074;48.112;11.570;2022-10-13T07:33:39;16.23;;;12.23;;
15950;SDS011;8074;48.112;11.570;2022-10-13T07:36:07;16.90;;;13.60;;
15950;SDS011;8074;48.112;11.570;2022-10-13T07:38:35;17.63;;;13.47;;
15950;SDS011;8074;48.112;11.570;2022-10-13T07:41:02;20.00;;;14.47;;
15950;SDS011;8074;48.112;11.570;2022-10-13T07:43:30;19.37;;;15.50;;
15950;SDS011;8074;48.112;11.570;2022-10-13T07:45:58;24.30;;;15.20;;
15950;SDS011;8074;48.112;11.570;2022-10-13T07:48:25;36.77;;;28.20;;
15950;SDS011;8074;48.112;11.570;2022-10-13T07:50:53;23.43;;;15.73;;
15950;SDS011;8074;48.112;11.570;2022-10-13T07:53:20;19.57;;;14.40;;
15950;SDS011;8074;48.112;11.570;2022-10-13T07:55:48;28.03;;;15.43;;
15950;SDS011;8074;48.112;11.570;2022-10-13T07:58:15;22.33;;;15.63;;
15950;SDS011;8074;48.112;11.570;2022-10-13T08:00:42;26.03;;;16.53;;
15950;SDS011;8074;48.112;11.570;2022-10-13T08:03:09;23.50;;;14.17;;
15950;SDS011;8074;48.112;11.570;2022-10-13T08:05:36;17.17;;;13.40;;
15950;SDS011;8074;48.112;11.570;2022-10-13T08:08:04;21.60;;;13.67;;
15950;SDS011;8074;48.112;11.570;2022-10-13T08:10:31;22.13;;;15.57;;
15950;SDS011;8074;48.112;11.570;2022-10-13T08:12:58;23.00;;;15.50;;
15950;SDS011;8074;48.112;11.570;2022-10-13T08:15:25;17.70;;;13.97;;
15950;SDS011;8074;48.112;11.570;2022-10-13T08:17:52;18.93;;;13.00;;
15950;SDS011;8074;48.112;11.570;2022-10-13T08:20:19;19.53;;;13.63;;
15950;SDS011;8074;48.112;11.570;2022-10-13T08:22:45;20.37;;;12.93;;
15950;SDS011;8074;48.112;11.570;2022-10-13T08:25:14;17.37;;;12.83;;
15950;SDS011;8074;48.112;11.570;2022-10-13T08:27:41;20.17;;;13.77;;
15950;SDS011;8074;48.112;11.570;2022-10-13T08:30:08;17.13;;;12.30;;
15950;SDS011;8074;48.112;11.570;2022-10-13T08:32:36;19.90;;;13.30;;
15950;SDS011;8074;48.112;11.570;2022-10-13T08:35:03;19.33;;;12.90;;
15950;SDS011;8074;48.112;11.570;2022-10-13T08:37:30;24.50;;;11.57;;
15950;SDS011;8074;48.112;11.570;2022-10-13T08:39:57;21.43;;;12.53;;
15950;SDS011;8074;48.112;11.570;2022-10-13T08:42:25;18.83;;;12.30;;
15950;SDS011;8074;48.112;11.570;2022-10-13T08:44:53;16.87;;;12.63;;
15950;SDS011;8074;48.112;11.570;2022-10-13T08:47:27;18.73;;;12.50;;
15950;SDS011;8074;48.112;11.570;2022-10-13T08:50:02;17.33;;;11.27;;
15950;SDS011;8074;48.112;11.570;2022-10-13T08:52:41;20.43;;;12.40;;
15950;SDS011;8074;48.112;11.570;2022-10-13T08:55:14;18.83;;;11.33;;
15950;SDS011;8074;48.112;11.570;2022-10-13T08:57:49;16.03;;;11.37;;
15950;SDS011;8074;48.112;11.570;2022-10-13T09:00:16;19.03;;;12.10;;
15950;SDS011;8074;48.112;11.570;2022-10-13T09:02:44;16.23;;;11.90;;
15950;SDS011;8074;48.112;11.570;2022-10-13T09:05:11;19.30;;;11.30;;
15950;SDS011;8074;48.112;11.570;2022-10-13T09:07:44;16.90;;;12.03;;
15950;SDS011;8074;48.112;11.570;2022-10-13T09:10:11;18.33;;;11.97;;
15950;SDS011;8074;48.112;11.570;2022-10-13T09:12:39;17.90;;;11.93;;
15950;SDS011;8074;48.112;11.570;2022-10-13T09:15:08;19.47;;;13.37;;
15950;SDS011;8074;48.112;11.570;2022-10-13T09:17:38;19.13;;;13.00;;
15950;SDS011;8074;48.112;11.570;2022-10-13T09:20:09;18.83;;;13.00;;
15950;SDS011;8074;48.112;11.570;2022-10-13T09:22:45;19.63;;;12.03;;
15950;SDS011;8074;48.112;11.570;2022-10-13T09:25:28;22.57;;;11.90;;
15950;SDS011;8074;48.112;11.570;2022-10-13T09:27:56;20.27;;;11.37;;
15950;SDS011;8074;48.112;11.570;2022-10-13T09:30:31;18.57;;;11.97;;
15950;SDS011;8074;48.112;11.570;2022-10-13T09:38:42;18.63;;;10.83;;
15950;SDS011;8074;48.112;11.570;2022-10-13T09:41:29;18.50;;;11.40;;
15950;SDS011;8074;48.112;11.570;2022-10-13T09:43:58;12.53;;;10.20;;
15950;SDS011;8074;48.112;11.570;2022-10-13T09:46:32;14.40;;;10.57;;
15950;SDS011;8074;48.112;11.570;2022-10-13T09:49:02;14.43;;;10.20;;
15950;SDS011;8074;48.112;11.570;2022-10-13T09:51:33;13.10;;;9.83;;
15950;SDS011;8074;48.112;11.570;2022-10-13T09:54:03;13.20;;;9.13;;
15950;SDS011;8074;48.112;11.570;2022-10-13T09:56:33;11.80;;;8.30;;
15950;SDS011;8074;48.112;11.570;2022-10-13T09:59:06;17.50;;;10.10;;
15950;SDS011;8074;48.112;11.570;2022-10-13T10:01:43;14.53;;;9.17;;
15950;SDS011;8074;48.112;11.570;2022-10-13T10:04:15;13.60;;;9.77;;
15950;SDS011;8074;48.112;11.570;2022-10-13T10:06:45;12.97;;;9.10;;
15950;SDS011;8074;48.112;11.570;2022-10-13T10:12:00;12.20;;;7.93;;
15950;SDS011;8074;48.112;11.570;2022-10-13T10:14:30;12.00;;;7.97;;
15950;SDS011;8074;48.112;11.570;2022-10-13T10:17:01;11.37;;;8.63;;
15950;SDS011;8074;48.112;11.570;2022-10-13T10:19:39;12.33;;;8.60;;
15950;SDS011;8074;48.112;11.570;2022-10-13T10:22:12;12.00;;;8.93;;
15950;SDS011;8074;48.112;11.570;2022-10-13T10:24:45;10.67;;;7.70;;
15950;SDS011;8074;48.112;11.570;2022-10-13T10:27:17;11.27;;;8.00;;
15950;SDS011;8074;48.112;11.570;2022-10-13T10:29:50;11.33;;;7.73;;
15950;SDS011;8074;48.112;11.570;2022-10-13T10:32:28;10.03;;;7.27;;
15950;SDS011;8074;48.112;11.570;2022-10-13T10:35:03;9.57;;;7.27;;
15950;SDS011;8074;48.112;11.570;2022-10-13T10:37:45;12.83;;;7.63;;
15950;SDS011;8074;48.112;11.570;2022-10-13T10:40:26;12.73;;;7.97;;
15950;SDS011;8074;48.112;11.570;2022-10-13T10:46:14;11.20;;;7.47;;
15950;SDS011;8074;48.112;11.570;2022-10-13T10:48:44;8.93;;;7.57;;
15950;SDS011;8074;48.112;11.570;2022-10-13T10:51:14;11.97;;;7.80;;
15950;SDS011;8074;48.112;11.570;2022-10-13T10:53:54;12.70;;;8.10;;
15950;SDS011;8074;48.112;11.570;2022-10-13T10:56:30;11.17;;;7.60;;
15950;SDS011;8074;48.112;11.570;2022-10-13T10:59:02;10.50;;;7.13;;
15950;SDS011;8074;48.112;11.570;2022-10-13T11:01:39;13.67;;;8.30;;
15950;SDS011;8074;48.112;11.570;2022-10-13T11:04:22;13.13;;;8.23;;
15950;SDS011;8074;48.112;11.570;2022-10-13T11:07:00;11.33;;;7.90;;
15950;SDS011;8074;48.112;11.570;2022-10-13T11:12:46;17.53;;;8.23;;
15950;SDS011;8074;48.112;11.570;2022-10-13T11:15:28;11.67;;;7.63;;
15950;SDS011;8074;48.112;11.570;2022-10-13T11:21:07;13.23;;;8.07;;
15950;SDS011;8074;48.112;11.570;2022-10-13T11:23:34;11.60;;;7.53;;
15950;SDS011;8074;48.112;11.570;2022-10-13T11:29:17;14.97;;;8.20;;
15950;SDS011;8074;48.112;11.570;2022-10-13T11:32:17;12.17;;;7.63;;
15950;SDS011;8074;48.112;11.570;2022-10-13T11:35:24;13.17;;;8.40;;
15950;SDS011;8074;48.112;11.570;2022-10-13T11:37:59;13.33;;;7.93;;
15950;SDS011;8074;48.112;11.570;2022-10-13T11:40:34;8.27;;;7.13;;
15950;SDS011;8074;48.112;11.570;2022-10-13T11:43:24;10.30;;;7.43;;
15950;SDS011;8074;48.112;11.570;2022-10-13T11:46:01;11.30;;;7.47;;
15950;SDS011;8074;48.112;11.570;2022-10-13T11:48:52;17.23;;;8.23;;
15950;SDS011;8074;48.112;11.570;2022-10-13T11:51:42;15.93;;;9.23;;
15950;SDS011;8074;48.112;11.570;2022-10-13T11:54:20;14.13;;;8.43;;
15950;SDS011;8074;48.112;11.570;2022-10-13T11:56:56;16.67;;;9.00;;
15950;SDS011;8074;48.112;11.570;2022-10-13T11:59:24;14.27;;;8.33;;
15950;SDS011;8074;48.112;11.570;2022-10-13T12:01:53;11.60;;;7.97;;
15950;SDS011;8074;48.112;11.570;2022-10-13T12:04:23;11.17;;;7.63;;
15950;SDS011;8074;48.112;11.570;2022-10-13T12:06:53;12.53;;;8.07;;
15950;SDS011;8074;48.112;11.570;2022-10-13T12:09:24;11.13;;;7.60;;
15950;SDS011;8074;48.112;11.570;2022-10-13T12:11:56;13.30;;;7.60;;
15950;SDS011;8074;48.112;11.570;2022-10-13T12:14:26;10.17;;;7.87;;
15950;SDS011;8074;48.112;11.570;2022-10-13T12:16:57;14.67;;;8.37;;
15950;SDS011;8074;48.112;11.570;2022-10-13T12:19:27;12.87;;;8.33;;
15950;SDS011;8074;48.112;11.570;2022-10-13T12:21:56;15.27;;;8.00;;
15950;SDS011;8074;48.112;11.570;2022-10-13T12:24:27;12.10;;;6.93;;
15950;SDS011;8074;48.112;11.570;2022-10-13T12:26:55;10.73;;;7.70;;
15950;SDS011;8074;48.112;11.570;2022-10-13T12:29:24;15.33;;;8.10;;
15950;SDS011;8074;48.112;11.570;2022-10-13T12:31:52;12.10;;;7.30;;
15950;SDS011;8074;48.112;11.570;2022-10-13T12:34:23;11.60;;;7.33;;
15950;SDS011;8074;48.112;11.570;2022-10-13T12:36:55;14.63;;;8.27;;
15950;SDS011;8074;48.112;11.570;2022-10-13T12:39:24;11.67;;;7.77;;
15950;SDS011;8074;48.112;11.570;2022-10-13T12:41:55;13.43;;;8.17;;
15950;SDS011;8074;48.112;11.570;2022-10-13T12:44:24;10.43;;;7.40;;
15950;SDS011;8074;48.112;11.570;2022-10-13T12:46:53;11.47;;;7.30;;
15950;SDS011;8074;48.112;11.570;2022-10-13T12:49:23;10.80;;;6.67;;
15950;SDS011;8074;48.112;11.570;2022-10-13T12:51:53;11.77;;;6.70;;
15950;SDS011;8074;48.112;11.570;2022-10-13T12:54:25;14.37;;;6.30;;
15950;SDS011;8074;48.112;11.570;2022-10-13T12:56:56;9.53;;;6.60;;
15950;SDS011;8074;48.112;11.570;2022-10-13T12:59:25;9.07;;;6.50;;
15950;SDS011;8074;48.112;11.570;2022-10-13T13:01:55;14.53;;;7.13;;
15950;SDS011;8074;48.112;11.570;2022-10-13T13:04:27;8.83;;;6.17;;
15950;SDS011;8074;48.112;11.570;2022-10-13T13:06:56;12.57;;;6.10;;
15950;SDS011;8074;48.112;11.570;2022-10-13T13:09:29;10.00;;;6.00;;
15950;SDS011;8074;48.112;11.570;2022-10-13T13:14:53;12.33;;;7.70;;
15950;SDS011;8074;48.112;11.570;2022-10-13T13:17:22;10.67;;;6.70;;
15950;SDS011;8074;48.112;11.570;2022-10-13T13:19:58;10.33;;;6.63;;
15950;SDS011;8074;48.112;11.570;2022-10-13T13:22:25;9.77;;;6.07;;
15950;SDS011;8074;48.112;11.570;2022-10-13T13:24:53;11.07;;;6.90;;
15950;SDS011;8074;48.112;11.570;2022-10-13T13:27:22;13.67;;;7.00;;
15950;SDS011;8074;48.112;11.570;2022-10-13T13:29:51;9.50;;;6.40;;
15950;SDS011;8074;48.112;11.570;2022-10-13T13:32:20;12.60;;;6.27;;
15950;SDS011;8074;48.112;11.570;2022-10-13T13:34:50;11.20;;;6.80;;
15950;SDS011;8074;48.112;11.570;2022-10-13T13:37:23;8.80;;;6.40;;
15950;SDS011;8074;48.112;11.570;2022-10-13T13:39:54;13.20;;;7.23;;
15950;SDS011;8074;48.112;11.570;2022-10-13T13:42:22;13.20;;;8.50;;
15950;SDS011;8074;48.112;11.570;2022-10-13T13:44:49;11.57;;;6.70;;
15950;SDS011;8074;48.112;11.570;2022-10-13T13:47:18;11.30;;;7.27;;
15950;SDS011;8074;48.112;11.570;2022-10-13T13:49:47;10.53;;;6.60;;
15950;SDS011;8074;48.112;11.570;2022-10-13T13:52:15;9.77;;;6.67;;
15950;SDS011;8074;48.112;11.570;2022-10-13T13:54:43;9.30;;;6.50;;
15950;SDS011;8074;48.112;11.570;2022-10-13T13:57:12;10.27;;;6.00;;
15950;SDS011;8074;48.112;11.570;2022-10-13T13:59:40;8.47;;;6.37;;
15950;SDS011;8074;48.112;11.570;2022-10-13T14:02:11;11.60;;;5.93;;
15950;SDS011;8074;48.112;11.570;2022-10-13T14:04:40;9.80;;;5.60;;
15950;SDS011;8074;48.112;11.570;2022-10-13T14:07:07;9.60;;;5.53;;
15950;SDS011;8074;48.112;11.570;2022-10-13T14:09:34;10.30;;;5.93;;
15950;SDS011;8074;48.112;11.570;2022-10-13T14:12:01;10.60;;;6.03;;
15950;SDS011;8074;48.112;11.570;2022-10-13T14:14:30;11.30;;;6.10;;
15950;SDS011;8074;48.112;11.570;2022-10-13T14:16:58;13.03;;;5.73;;
15950;SDS011;8074;48.112;11.570;2022-10-13T14:19:27;13.80;;;6.17;;
15950;SDS011;8074;48.112;11.570;2022-10-13T14:21:55;10.87;;;6.33;;
15950;SDS011;8074;48.112;11.570;2022-10-13T14:24:22;11.63;;;6.70;;
15950;SDS011;8074;48.112;11.570;2022-10-13T14:26:49;12.03;;;6.37;;
15950;SDS011;8074;48.112;11.570;2022-10-13T14:29:16;10.00;;;6.10;;
15950;SDS011;8074;48.112;11.570;2022-10-13T14:31:45;11.27;;;6.43;;
15950;SDS011;8074;48.112;11.570;2022-10-13T14:34:11;12.23;;;7.03;;
15950;SDS011;8074;48.112;11.570;2022-10-13T14:36:38;12.87;;;5.87;;
15950;SDS011;8074;48.112;11.570;2022-10-13T14:39:05;9.40;;;6.00;;
15950;SDS011;8074;48.112;11.570;2022-10-13T14:41:32;9.70;;;5.70;;
15950;SDS011;8074;48.112;11.570;2022-10-13T14:44:00;8.73;;;5.50;;
15950;SDS011;8074;48.112;11.570;2022-10-13T14:46:27;11.87;;;6.60;;
15950;SDS011;8074;48.112;11.570;2022-10-13T14:48:56;10.30;;;5.90;;
15950;SDS011;8074;48.112;11.570;2022-10-13T14:51:25;10.37;;;6.27;;
15950;SDS011;8074;48.112;11.570;2022-10-13T14:53:53;12.77;;;6.13;;
15950;SDS011;8074;48.112;11.570;2022-10-13T14:56:21;11.53;;;5.17;;
15950;SDS011;8074;48.112;11.570;2022-10-13T14:58:49;8.20;;;5.83;;
15950;SDS011;8074;48.112;11.570;2022-10-13T15:01:17;9.67;;;5.50;;
15950;SDS011;8074;48.112;11.570;2022-10-13T15:03:46;12.43;;;6.20;;
15950;SDS011;8074;48.112;11.570;2022-10-13T15:06:15;10.27;;;5.13;;
15950;SDS011;8074;48.112;11.570;2022-10-13T15:08:43;11.93;;;5.70;;
15950;SDS011;8074;48.112;11.570;2022-10-13T15:11:11;8.97;;;5.73;;
15950;SDS011;8074;48.112;11.570;2022-10-13T15:13:39;16.43;;;6.43;;
15950;SDS011;8074;48.112;11.570;2022-10-13T15:16:06;9.63;;;5.57;;
15950;SDS011;8074;48.112;11.570;2022-10-13T15:18:40;10.13;;;6.17;;
15950;SDS011;8074;48.112;11.570;2022-10-13T15:21:11;9.07;;;5.60;;
15950;SDS011;8074;48.112;11.570;2022-10-13T15:23:39;9.47;;;6.20;;
15950;SDS011;8074;48.112;11.570;2022-10-13T15:26:07;11.20;;;5.83;;
15950;SDS011;8074;48.112;11.570;2022-10-13T15:28:37;10.60;;;6.57;;
15950;SDS011;8074;48.112;11.570;2022-10-13T15:31:06;8.33;;;6.57;;
15950;SDS011;8074;48.112;11.570;2022-10-13T15:33:33;9.67;;;6.47;;
15950;SDS011;8074;48.112;11.570;2022-10-13T15:36:00;11.00;;;6.17;;
15950;SDS011;8074;48.112;11.570;2022-10-13T15:38:28;8.90;;;5.83;;
15950;SDS011;8074;48.112;11.570;2022-10-13T15:40:59;12.10;;;6.10;;
15950;SDS011;8074;48.112;11.570;2022-10-13T15:43:26;12.17;;;8.60;;
15950;SDS011;8074;48.112;11.570;2022-10-13T15:45:54;10.67;;;6.70;;
15950;SDS011;8074;48.112;11.570;2022-10-13T15:48:25;12.57;;;5.70;;
15950;SDS011;8074;48.112;11.570;2022-10-13T15:50:52;11.67;;;6.90;;
15950;SDS011;8074;48.112;11.570;2022-10-13T15:53:20;12.33;;;6.77;;
15950;SDS011;8074;48.112;11.570;2022-10-13T15:55:55;12.10;;;7.37;;
15950;SDS011;8074;48.112;11.570;2022-10-13T15:58:27;18.20;;;6.53;;
15950;SDS011;8074;48.112;11.570;2022-10-13T16:00:54;14.60;;;6.83;;
15950;SDS011;8074;48.112;11.570;2022-10-13T16:03:21;12.80;;;7.07;;
15950;SDS011;8074;48.112;11.570;2022-10-13T16:05:53;14.67;;;10.47;;
15950;SDS011;8074;48.112;11.570;2022-10-13T16:08:20;14.40;;;10.47;;